sensor_id;sensor_type;location;lat;lon;timestamp;pressure;altitude;pressure_sealevel;temperature;humidity
28000;BME280;15328;50.860;10.562;2023-12-14T00:04:56;95361.25;;;8.54;64.68
28000;BME280;15328;50.860;10.562;2023-12-14T00:09:57;95361.25;;;8.54;64.82
28000;BME280;15328;50.860;10.562;2023-12-14T00:14:57;95368.97;;;8.56;64.76
28000;BME280;15328;50.860;10.562;2023-12-14T00:19:58;95376.81;;;8.51;65.11
28000;BME280;15328;50.860;10.562;2023-12-14T00:24:58;95382.78;;;8.46;65.31
28000;BME280;15328;50.860;10.562;2023-12-14T00:29:58;95392.94;;;8.49;65.17
28000;BME280;15328;50.860;10.562;2023-12-14T00:34:59;95394.09;;;8.53;64.91
28000;BME280;15328;50.860;10.562;2023-12-14T00:39:59;95402.06;;;8.53;64.97
28000;BME280;15328;50.860;10.562;2023-12-14T00:45:00;95402.28;;;8.52;65.16
28000;BME280;15328;50.860;10.562;2023-12-14T00:50:00;95413.22;;;8.55;64.82
28000;BME280;15328;50.860;10.562;2023-12-14T00:55:00;95409.44;;;8.51;64.63
28000;BME280;15328;50.860;10.562;2023-12-14T01:00:01;95409.44;;;8.51;65.25
28000;BME280;15328;50.860;10.562;2023-12-14T01:05:01;95421.88;;;8.51;65.50
28000;BME280;15328;50.860;10.562;2023-12-14T01:10:02;95425.75;;;8.48;65.10
28000;BME280;15328;50.860;10.562;2023-12-14T01:15:03;95436.59;;;8.47;65.34
28000;BME280;15328;50.860;10.562;2023-12-14T01:20:05;95446.38;;;8.46;64.94
28000;BME280;15328;50.860;10.562;2023-12-14T01:25:07;95445.13;;;8.49;64.83
28000;BME280;15328;50.860;10.562;2023-12-14T01:30:08;95455.16;;;8.47;65.14
28000;BME280;15328;50.860;10.562;2023-12-14T01:35:08;95464.94;;;8.46;64.82
28000;BME280;15328;50.860;10.562;2023-12-14T01:40:09;95480.63;;;8.48;64.85
28000;BME280;15328;50.860;10.562;2023-12-14T01:45:09;95490.66;;;8.46;64.72
28000;BME280;15328;50.860;10.562;2023-12-14T01:50:10;95493.69;;;8.49;65.12
28000;BME280;15328;50.860;10.562;2023-12-14T01:55:10;95499.31;;;8.53;65.08
28000;BME280;15328;50.860;10.562;2023-12-14T02:00:23;95503.59;;;8.54;65.38
28000;BME280;15328;50.860;10.562;2023-12-14T02:05:25;95504.28;;;8.49;64.91
28000;BME280;15328;50.860;10.562;2023-12-14T02:10:25;95501.63;;;8.49;64.94
28000;BME280;15328;50.860;10.562;2023-12-14T02:15:26;95505.09;;;8.50;64.54
28000;BME280;15328;50.860;10.562;2023-12-14T02:20:26;95519.34;;;8.49;64.64
28000;BME280;15328;50.860;10.562;2023-12-14T02:25:26;95523.47;;;8.45;64.30
28000;BME280;15328;50.860;10.562;2023-12-14T02:30:27;95524.75;;;8.42;64.29
28000;BME280;15328;50.860;10.562;2023-12-14T02:35:27;95530.38;;;8.34;64.72
28000;BME280;15328;50.860;10.562;2023-12-14T02:40:27;95532.22;;;8.33;64.68
28000;BME280;15328;50.860;10.562;2023-12-14T02:45:28;95535.66;;;8.34;64.91
28000;BME280;15328;50.860;10.562;2023-12-14T02:50:28;95536.09;;;8.31;64.87
28000;BME280;15328;50.860;10.562;2023-12-14T02:55:28;95550.97;;;8.32;65.29
28000;BME280;15328;50.860;10.562;2023-12-14T03:00:29;95555.69;;;8.30;65.11
28000;BME280;15328;50.860;10.562;2023-12-14T03:05:29;95561.19;;;8.28;65.08
28000;BME280;15328;50.860;10.562;2023-12-14T03:10:30;95567.91;;;8.31;65.49
28000;BME280;15328;50.860;10.562;2023-12-14T03:15:30;95572.97;;;8.32;65.61
28000;BME280;15328;50.860;10.562;2023-12-14T03:20:30;95572.31;;;8.37;65.19
28000;BME280;15328;50.860;10.562;2023-12-14T03:25:31;95586.59;;;8.36;65.59
28000;BME280;15328;50.860;10.562;2023-12-14T03:30:31;95584.75;;;8.36;65.80
28000;BME280;15328;50.860;10.562;2023-12-14T03:35:31;95592.72;;;8.36;65.50
28000;BME280;15328;50.860;10.562;2023-12-14T03:40:32;95595.72;;;8.40;65.64
28000;BME280;15328;50.860;10.562;2023-12-14T03:45:32;95605.66;;;8.45;65.97
28000;BME280;15328;50.860;10.562;2023-12-14T03:50:33;95613.38;;;8.46;65.66
28000;BME280;15328;50.860;10.562;2023-12-14T03:55:34;95614.19;;;8.47;66.19
28000;BME280;15328;50.860;10.562;2023-12-14T04:00:34;95632.16;;;8.45;66.08
28000;BME280;15328;50.860;10.562;2023-12-14T04:05:35;95643.09;;;8.48;66.50
28000;BME280;15328;50.860;10.562;2023-12-14T04:10:35;95642.25;;;8.54;65.92
28000;BME280;15328;50.860;10.562;2023-12-14T04:15:36;95655.03;;;8.57;65.89
28000;BME280;15328;50.860;10.562;2023-12-14T04:20:36;95655.84;;;8.58;65.86
28000;BME280;15328;50.860;10.562;2023-12-14T04:25:37;95676.75;;;8.66;66.14
28000;BME280;15328;50.860;10.562;2023-12-14T04:30:37;95678.94;;;8.69;65.45
28000;BME280;15328;50.860;10.562;2023-12-14T04:35:37;95685.06;;;8.70;65.96
28000;BME280;15328;50.860;10.562;2023-12-14T04:40:38;95688.88;;;8.74;65.69
28000;BME280;15328;50.860;10.562;2023-12-14T04:45:38;95690.06;;;8.78;65.75
28000;BME280;15328;50.860;10.562;2023-12-14T04:50:38;95687.19;;;8.79;65.44
28000;BME280;15328;50.860;10.562;2023-12-14T04:55:39;95703.47;;;8.83;65.80
28000;BME280;15328;50.860;10.562;2023-12-14T05:00:39;95705.09;;;8.84;65.52
28000;BME280;15328;50.860;10.562;2023-12-14T05:05:40;95710.97;;;8.86;65.28
28000;BME280;15328;50.860;10.562;2023-12-14T05:10:40;95725.84;;;8.87;65.69
28000;BME280;15328;50.860;10.562;2023-12-14T05:15:40;95743.59;;;8.86;65.56
28000;BME280;15328;50.860;10.562;2023-12-14T05:20:41;95747.75;;;8.82;66.10
28000;BME280;15328;50.860;10.562;2023-12-14T05:25:41;95759.16;;;8.83;65.79
28000;BME280;15328;50.860;10.562;2023-12-14T05:30:42;95761.81;;;8.83;65.88
28000;BME280;15328;50.860;10.562;2023-12-14T05:35:43;95759.38;;;8.81;65.96
28000;BME280;15328;50.860;10.562;2023-12-14T05:40:44;95776.91;;;8.82;66.17
28000;BME280;15328;50.860;10.562;2023-12-14T05:45:44;95781.19;;;8.83;66.32
28000;BME280;15328;50.860;10.562;2023-12-14T05:50:45;95788.34;;;8.83;66.15
28000;BME280;15328;50.860;10.562;2023-12-14T05:55:45;95792.25;;;8.80;66.54
28000;BME280;15328;50.860;10.562;2023-12-14T06:00:46;95796.06;;;8.84;66.69
28000;BME280;15328;50.860;10.562;2023-12-14T06:05:46;95812.47;;;8.93;66.15
28000;BME280;15328;50.860;10.562;2023-12-14T06:10:47;95822.28;;;8.92;66.19
28000;BME280;15328;50.860;10.562;2023-12-14T06:15:47;95830.91;;;8.88;66.10
28000;BME280;15328;50.860;10.562;2023-12-14T06:20:47;95830.00;;;8.76;66.56
28000;BME280;15328;50.860;10.562;2023-12-14T06:25:49;95842.41;;;8.82;66.57
28000;BME280;15328;50.860;10.562;2023-12-14T06:30:49;95843.22;;;8.82;66.82
28000;BME280;15328;50.860;10.562;2023-12-14T06:35:49;95863.47;;;8.77;66.91
28000;BME280;15328;50.860;10.562;2023-12-14T06:40:50;95869.19;;;8.74;66.93
28000;BME280;15328;50.860;10.562;2023-12-14T06:45:50;95873.25;;;8.76;67.13
28000;BME280;15328;50.860;10.562;2023-12-14T06:50:51;95894.41;;;8.83;67.07
28000;BME280;15328;50.860;10.562;2023-12-14T06:55:51;95902.28;;;8.71;67.16
28000;BME280;15328;50.860;10.562;2023-12-14T07:00:51;95911.03;;;8.72;67.25
28000;BME280;15328;50.860;10.562;2023-12-14T07:05:52;95921.94;;;8.63;67.53
28000;BME280;15328;50.860;10.562;2023-12-14T07:10:52;95920.16;;;8.57;67.59
28000;BME280;15328;50.860;10.562;2023-12-14T07:15:52;95920.22;;;8.51;67.39
28000;BME280;15328;50.860;10.562;2023-12-14T07:20:53;95941.00;;;8.54;67.40
28000;BME280;15328;50.860;10.562;2023-12-14T07:25:53;95947.13;;;8.48;67.13
28000;BME280;15328;50.860;10.562;2023-12-14T07:30:55;95959.25;;;8.37;67.59
28000;BME280;15328;50.860;10.562;2023-12-14T07:35:55;95976.56;;;8.40;67.34
28000;BME280;15328;50.860;10.562;2023-12-14T07:40:56;95975.59;;;8.34;67.57
28000;BME280;15328;50.860;10.562;2023-12-14T07:45:57;95979.66;;;8.30;67.24
28000;BME280;15328;50.860;10.562;2023-12-14T07:50:58;95989.06;;;8.26;67.38
28000;BME280;15328;50.860;10.562;2023-12-14T07:55:58;95999.47;;;8.21;67.26
28000;BME280;15328;50.860;10.562;2023-12-14T08:01:02;96005.81;;;8.20;67.43
28000;BME280;15328;50.860;10.562;2023-12-14T08:06:02;96011.16;;;8.13;67.69
28000;BME280;15328;50.860;10.562;2023-12-14T08:11:03;96026.81;;;8.15;67.76
28000;BME280;15328;50.860;10.562;2023-12-14T08:16:04;96031.53;;;8.13;67.54
28000;BME280;15328;50.860;10.562;2023-12-14T08:21:05;96032.94;;;8.15;67.66
28000;BME280;15328;50.860;10.562;2023-12-14T08:26:06;96050.25;;;8.18;67.22
28000;BME280;15328;50.860;10.562;2023-12-14T08:31:06;96058.19;;;8.18;67.16
28000;BME280;15328;50.860;10.562;2023-12-14T08:36:07;96064.13;;;8.13;66.99
28000;BME280;15328;50.860;10.562;2023-12-14T08:41:07;96070.47;;;8.12;67.43
28000;BME280;15328;50.860;10.562;2023-12-14T08:46:08;96078.19;;;8.14;67.11
28000;BME280;15328;50.860;10.562;2023-12-14T08:51:10;96092.84;;;8.16;66.90
28000;BME280;15328;50.860;10.562;2023-12-14T08:56:10;96110.38;;;8.17;66.66
28000;BME280;15328;50.860;10.562;2023-12-14T09:01:10;96127.72;;;8.13;66.98
28000;BME280;15328;50.860;10.562;2023-12-14T09:06:11;96139.78;;;8.02;67.30
28000;BME280;15328;50.860;10.562;2023-12-14T09:11:11;96141.03;;;7.93;66.85
28000;BME280;15328;50.860;10.562;2023-12-14T09:16:12;96137.00;;;7.78;66.95
28000;BME280;15328;50.860;10.562;2023-12-14T09:21:12;96145.38;;;7.68;67.58
28000;BME280;15328;50.860;10.562;2023-12-14T09:26:14;96160.66;;;7.72;67.55
28000;BME280;15328;50.860;10.562;2023-12-14T09:31:15;96169.59;;;7.65;67.76
28000;BME280;15328;50.860;10.562;2023-12-14T09:36:16;96186.31;;;7.59;67.63
28000;BME280;15328;50.860;10.562;2023-12-14T09:41:16;96192.00;;;7.56;67.80
28000;BME280;15328;50.860;10.562;2023-12-14T09:46:17;96190.38;;;7.55;67.69
28000;BME280;15328;50.860;10.562;2023-12-14T09:51:18;96191.00;;;7.50;67.25
28000;BME280;15328;50.860;10.562;2023-12-14T09:56:18;96202.41;;;7.51;67.51
28000;BME280;15328;50.860;10.562;2023-12-14T10:01:23;96220.13;;;7.50;67.73
28000;BME280;15328;50.860;10.562;2023-12-14T10:06:26;96220.94;;;7.51;67.66
28000;BME280;15328;50.860;10.562;2023-12-14T10:11:27;96227.84;;;7.52;67.34
28000;BME280;15328;50.860;10.562;2023-12-14T10:16:29;96230.50;;;7.52;67.71
28000;BME280;15328;50.860;10.562;2023-12-14T10:21:30;96245.16;;;7.48;67.54
28000;BME280;15328;50.860;10.562;2023-12-14T10:26:31;96245.56;;;7.44;67.27
28000;BME280;15328;50.860;10.562;2023-12-14T10:31:31;96258.81;;;7.44;66.49
28000;BME280;15328;50.860;10.562;2023-12-14T10:36:34;96265.47;;;7.27;66.85
28000;BME280;15328;50.860;10.562;2023-12-14T10:41:36;96276.88;;;7.21;66.51
28000;BME280;15328;50.860;10.562;2023-12-14T10:46:37;96289.47;;;7.12;67.00
28000;BME280;15328;50.860;10.562;2023-12-14T10:51:38;96288.22;;;7.08;66.59
28000;BME280;15328;50.860;10.562;2023-12-14T10:56:42;96303.06;;;7.03;66.84
28000;BME280;15328;50.860;10.562;2023-12-14T11:01:43;96307.75;;;7.01;66.35
28000;BME280;15328;50.860;10.562;2023-12-14T11:06:43;96313.00;;;6.94;66.36
28000;BME280;15328;50.860;10.562;2023-12-14T11:11:54;96325.41;;;6.94;66.72
28000;BME280;15328;50.860;10.562;2023-12-14T11:17:05;96335.97;;;6.87;66.16
28000;BME280;15328;50.860;10.562;2023-12-14T11:22:10;96338.63;;;6.87;66.61
28000;BME280;15328;50.860;10.562;2023-12-14T11:27:12;96341.22;;;6.80;66.72
28000;BME280;15328;50.860;10.562;2023-12-14T11:32:13;96347.56;;;6.86;66.46
28000;BME280;15328;50.860;10.562;2023-12-14T11:37:13;96359.78;;;6.87;66.62
28000;BME280;15328;50.860;10.562;2023-12-14T11:42:14;96362.38;;;6.80;66.49
28000;BME280;15328;50.860;10.562;2023-12-14T11:47:18;96357.69;;;6.82;65.95
28000;BME280;15328;50.860;10.562;2023-12-14T11:52:18;96372.09;;;6.73;65.91
28000;BME280;15328;50.860;10.562;2023-12-14T11:57:19;96372.72;;;6.75;66.03
28000;BME280;15328;50.860;10.562;2023-12-14T12:02:23;96369.66;;;6.72;65.35
28000;BME280;15328;50.860;10.562;2023-12-14T12:07:24;96374.72;;;6.67;65.63
28000;BME280;15328;50.860;10.562;2023-12-14T12:12:25;96376.94;;;6.63;65.63
28000;BME280;15328;50.860;10.562;2023-12-14T12:17:25;96378.13;;;6.61;65.37
28000;BME280;15328;50.860;10.562;2023-12-14T12:22:26;96393.94;;;6.54;65.41
28000;BME280;15328;50.860;10.562;2023-12-14T12:27:27;96391.47;;;6.53;65.70
28000;BME280;15328;50.860;10.562;2023-12-14T12:32:27;96396.16;;;6.50;65.57
28000;BME280;15328;50.860;10.562;2023-12-14T12:37:27;96396.97;;;6.51;65.55
28000;BME280;15328;50.860;10.562;2023-12-14T12:42:28;96399.13;;;6.41;65.43
28000;BME280;15328;50.860;10.562;2023-12-14T12:47:30;96407.22;;;6.33;65.57
28000;BME280;15328;50.860;10.562;2023-12-14T12:52:30;96408.97;;;6.26;65.78
28000;BME280;15328;50.860;10.562;2023-12-14T12:57:30;96425.44;;;6.28;65.77
28000;BME280;15328;50.860;10.562;2023-12-14T13:02:31;96422.56;;;6.23;66.19
28000;BME280;15328;50.860;10.562;2023-12-14T13:07:31;96432.31;;;6.22;66.16
28000;BME280;15328;50.860;10.562;2023-12-14T13:12:32;96441.63;;;6.18;66.01
28000;BME280;15328;50.860;10.562;2023-12-14T13:17:32;96449.25;;;6.06;66.43
28000;BME280;15328;50.860;10.562;2023-12-14T13:22:33;96457.84;;;6.15;66.33
28000;BME280;15328;50.860;10.562;2023-12-14T13:27:33;96467.34;;;6.09;66.58
28000;BME280;15328;50.860;10.562;2023-12-14T13:32:36;96472.00;;;6.07;66.22
28000;BME280;15328;50.860;10.562;2023-12-14T13:37:36;96471.63;;;6.10;66.55
28000;BME280;15328;50.860;10.562;2023-12-14T13:42:37;96479.66;;;6.02;66.37
28000;BME280;15328;50.860;10.562;2023-12-14T13:47:37;96483.25;;;5.95;66.41
28000;BME280;15328;50.860;10.562;2023-12-14T13:52:37;96495.69;;;6.01;66.36
28000;BME280;15328;50.860;10.562;2023-12-14T13:57:38;96503.69;;;6.07;66.40
28000;BME280;15328;50.860;10.562;2023-12-14T14:02:38;96515.19;;;6.00;66.36
28000;BME280;15328;50.860;10.562;2023-12-14T14:07:38;96520.66;;;5.98;66.60
28000;BME280;15328;50.860;10.562;2023-12-14T14:12:39;96534.22;;;5.95;66.58
28000;BME280;15328;50.860;10.562;2023-12-14T14:17:39;96544.16;;;5.93;66.58
28000;BME280;15328;50.860;10.562;2023-12-14T14:22:40;96549.25;;;5.95;66.56
28000;BME280;15328;50.860;10.562;2023-12-14T14:27:40;96564.28;;;5.94;66.67
28000;BME280;15328;50.860;10.562;2023-12-14T14:32:41;96568.94;;;5.92;66.50
28000;BME280;15328;50.860;10.562;2023-12-14T14:37:41;96585.13;;;5.89;66.70
28000;BME280;15328;50.860;10.562;2023-12-14T14:42:45;96586.13;;;5.88;66.37
28000;BME280;15328;50.860;10.562;2023-12-14T14:47:45;96591.41;;;5.88;66.42
28000;BME280;15328;50.860;10.562;2023-12-14T14:52:46;96618.53;;;5.82;66.44
28000;BME280;15328;50.860;10.562;2023-12-14T14:57:46;96625.09;;;5.71;65.53
28000;BME280;15328;50.860;10.562;2023-12-14T15:02:46;96628.56;;;5.57;65.95
28000;BME280;15328;50.860;10.562;2023-12-14T15:07:47;96641.47;;;5.52;66.05
28000;BME280;15328;50.860;10.562;2023-12-14T15:12:47;96650.63;;;5.41;65.87
28000;BME280;15328;50.860;10.562;2023-12-14T15:17:47;96668.47;;;5.39;66.12
28000;BME280;15328;50.860;10.562;2023-12-14T15:22:48;96675.94;;;5.36;65.52
28000;BME280;15328;50.860;10.562;2023-12-14T15:27:48;96686.38;;;5.29;65.70
28000;BME280;15328;50.860;10.562;2023-12-14T15:32:48;96693.66;;;5.27;66.50
28000;BME280;15328;50.860;10.562;2023-12-14T15:37:49;96702.75;;;5.24;65.79
28000;BME280;15328;50.860;10.562;2023-12-14T15:42:49;96716.41;;;5.28;66.13
28000;BME280;15328;50.860;10.562;2023-12-14T15:47:51;96723.25;;;5.37;65.87
28000;BME280;15328;50.860;10.562;2023-12-14T15:52:51;96740.53;;;5.40;65.87
28000;BME280;15328;50.860;10.562;2023-12-14T15:57:52;96745.16;;;5.38;65.92
28000;BME280;15328;50.860;10.562;2023-12-14T16:02:52;96749.63;;;5.37;65.67
28000;BME280;15328;50.860;10.562;2023-12-14T16:07:52;96759.81;;;5.40;66.10
28000;BME280;15328;50.860;10.562;2023-12-14T16:12:53;96761.28;;;5.43;65.81
28000;BME280;15328;50.860;10.562;2023-12-14T16:17:53;96759.44;;;5.28;65.08
28000;BME280;15328;50.860;10.562;2023-12-14T16:22:54;96764.25;;;5.25;65.58
28000;BME280;15328;50.860;10.562;2023-12-14T16:27:54;96770.88;;;5.21;65.59
28000;BME280;15328;50.860;10.562;2023-12-14T16:32:54;96784.91;;;5.13;65.29
28000;BME280;15328;50.860;10.562;2023-12-14T16:37:57;96792.00;;;5.13;65.79
28000;BME280;15328;50.860;10.562;2023-12-14T16:42:57;96802.84;;;5.18;65.89
28000;BME280;15328;50.860;10.562;2023-12-14T16:47:57;96825.59;;;5.19;66.20
28000;BME280;15328;50.860;10.562;2023-12-14T16:52:58;96823.28;;;5.24;65.75
28000;BME280;15328;50.860;10.562;2023-12-14T16:57:58;96833.13;;;5.30;66.12
28000;BME280;15328;50.860;10.562;2023-12-14T17:02:58;96836.28;;;5.25;65.66
28000;BME280;15328;50.860;10.562;2023-12-14T17:07:59;96845.84;;;5.26;65.60
28000;BME280;15328;50.860;10.562;2023-12-14T17:12:59;96846.66;;;5.27;65.72
28000;BME280;15328;50.860;10.562;2023-12-14T17:17:59;96862.31;;;5.28;65.22
28000;BME280;15328;50.860;10.562;2023-12-14T17:23:04;96871.56;;;5.24;64.98
28000;BME280;15328;50.860;10.562;2023-12-14T17:28:04;96881.66;;;5.13;64.99
28000;BME280;15328;50.860;10.562;2023-12-14T17:33:05;96886.66;;;5.08;65.90
28000;BME280;15328;50.860;10.562;2023-12-14T17:38:06;96892.44;;;5.03;65.31
28000;BME280;15328;50.860;10.562;2023-12-14T17:43:06;96897.06;;;5.01;65.57
28000;BME280;15328;50.860;10.562;2023-12-14T17:48:07;96903.28;;;5.08;65.82
28000;BME280;15328;50.860;10.562;2023-12-14T17:53:07;96914.66;;;5.09;66.28
28000;BME280;15328;50.860;10.562;2023-12-14T17:58:07;96908.88;;;5.13;66.54
28000;BME280;15328;50.860;10.562;2023-12-14T18:03:08;96915.31;;;5.11;65.62
28000;BME280;15328;50.860;10.562;2023-12-14T18:08:08;96919.41;;;5.13;65.96
28000;BME280;15328;50.860;10.562;2023-12-14T18:13:09;96916.09;;;5.19;65.86
28000;BME280;15328;50.860;10.562;2023-12-14T18:18:09;96927.66;;;5.10;65.76
28000;BME280;15328;50.860;10.562;2023-12-14T18:23:09;96930.97;;;5.12;65.80
28000;BME280;15328;50.860;10.562;2023-12-14T18:28:10;96939.88;;;5.11;66.31
28000;BME280;15328;50.860;10.562;2023-12-14T18:33:10;96947.31;;;5.08;65.90
28000;BME280;15328;50.860;10.562;2023-12-14T18:38:13;96954.22;;;5.09;66.46
28000;BME280;15328;50.860;10.562;2023-12-14T18:43:14;96970.00;;;5.17;65.77
28000;BME280;15328;50.860;10.562;2023-12-14T18:48:14;96973.47;;;5.17;66.07
28000;BME280;15328;50.860;10.562;2023-12-14T18:53:14;96986.81;;;5.24;65.92
28000;BME280;15328;50.860;10.562;2023-12-14T18:58:15;96988.63;;;5.23;66.15
28000;BME280;15328;50.860;10.562;2023-12-14T19:03:15;96988.81;;;5.22;66.20
28000;BME280;15328;50.860;10.562;2023-12-14T19:08:15;97010.22;;;5.27;65.56
28000;BME280;15328;50.860;10.562;2023-12-14T19:13:16;97019.78;;;5.28;65.53
28000;BME280;15328;50.860;10.562;2023-12-14T19:18:16;97019.28;;;5.24;65.80
28000;BME280;15328;50.860;10.562;2023-12-14T19:23:17;97030.31;;;5.28;65.64
28000;BME280;15328;50.860;10.562;2023-12-14T19:28:17;97039.56;;;5.24;65.26
28000;BME280;15328;50.860;10.562;2023-12-14T19:33:17;97050.78;;;5.26;65.79
28000;BME280;15328;50.860;10.562;2023-12-14T19:38:18;97055.88;;;5.27;65.31
28000;BME280;15328;50.860;10.562;2023-12-14T19:43:18;97059.34;;;5.28;65.25
28000;BME280;15328;50.860;10.562;2023-12-14T19:48:18;97067.25;;;5.28;65.17
28000;BME280;15328;50.860;10.562;2023-12-14T19:53:19;97076.97;;;5.27;64.98
28000;BME280;15328;50.860;10.562;2023-12-14T19:58:19;97083.25;;;5.26;65.43
28000;BME280;15328;50.860;10.562;2023-12-14T20:03:20;97096.78;;;5.23;64.50
28000;BME280;15328;50.860;10.562;2023-12-14T20:08:20;97102.53;;;5.19;65.04
28000;BME280;15328;50.860;10.562;2023-12-14T20:13:21;97109.63;;;5.18;65.11
28000;BME280;15328;50.860;10.562;2023-12-14T20:18:23;97117.88;;;5.15;64.58
28000;BME280;15328;50.860;10.562;2023-12-14T20:23:23;97131.22;;;5.14;64.84
28000;BME280;15328;50.860;10.562;2023-12-14T20:28:23;97145.25;;;5.14;64.83
28000;BME280;15328;50.860;10.562;2023-12-14T20:33:24;97147.56;;;5.09;64.29
28000;BME280;15328;50.860;10.562;2023-12-14T20:38:24;97154.00;;;5.07;64.57
28000;BME280;15328;50.860;10.562;2023-12-14T20:43:24;97169.50;;;5.10;64.33
28000;BME280;15328;50.860;10.562;2023-12-14T20:48:25;97161.75;;;5.08;64.72
28000;BME280;15328;50.860;10.562;2023-12-14T20:53:25;97164.38;;;5.00;64.00
28000;BME280;15328;50.860;10.562;2023-12-14T20:58:25;97171.16;;;4.94;63.86
28000;BME280;15328;50.860;10.562;2023-12-14T21:03:26;97173.75;;;4.86;63.51
28000;BME280;15328;50.860;10.562;2023-12-14T21:08:26;97172.63;;;4.81;62.94
28000;BME280;15328;50.860;10.562;2023-12-14T21:13:26;97186.47;;;4.75;62.56
28000;BME280;15328;50.860;10.562;2023-12-14T21:18:28;97190.22;;;4.64;62.58
28000;BME280;15328;50.860;10.562;2023-12-14T21:23:28;97188.72;;;4.53;63.12
28000;BME280;15328;50.860;10.562;2023-12-14T21:28:29;97197.94;;;4.49;62.75
28000;BME280;15328;50.860;10.562;2023-12-14T21:33:31;97196.91;;;4.34;62.56
28000;BME280;15328;50.860;10.562;2023-12-14T21:38:31;97193.75;;;4.30;63.21
28000;BME280;15328;50.860;10.562;2023-12-14T21:43:32;97200.50;;;4.25;62.75
28000;BME280;15328;50.860;10.562;2023-12-14T21:48:32;97203.44;;;4.22;63.18
28000;BME280;15328;50.860;10.562;2023-12-14T21:53:33;97211.50;;;4.20;63.23
28000;BME280;15328;50.860;10.562;2023-12-14T21:58:33;97217.03;;;4.09;63.25
28000;BME280;15328;50.860;10.562;2023-12-14T22:03:33;97224.78;;;4.11;63.17
28000;BME280;15328;50.860;10.562;2023-12-14T22:08:34;97231.16;;;4.00;63.14
28000;BME280;15328;50.860;10.562;2023-12-14T22:13:34;97235.56;;;3.91;63.06
28000;BME280;15328;50.860;10.562;2023-12-14T22:18:35;97243.31;;;3.93;62.96
28000;BME280;15328;50.860;10.562;2023-12-14T22:23:35;97242.66;;;3.91;63.03
28000;BME280;15328;50.860;10.562;2023-12-14T22:28:36;97251.19;;;3.85;62.89
28000;BME280;15328;50.860;10.562;2023-12-14T22:33:37;97268.06;;;3.82;62.47
28000;BME280;15328;50.860;10.562;2023-12-14T22:38:37;97269.53;;;3.77;62.64
28000;BME280;15328;50.860;10.562;2023-12-14T22:43:37;97264.25;;;3.77;62.49
28000;BME280;15328;50.860;10.562;2023-12-14T22:48:38;97287.28;;;3.75;62.48
28000;BME280;15328;50.860;10.562;2023-12-14T22:53:38;97298.94;;;3.72;62.42
28000;BME280;15328;50.860;10.562;2023-12-14T22:58:38;97301.88;;;3.69;63.11
28000;BME280;15328;50.860;10.562;2023-12-14T23:03:39;97296.47;;;3.70;62.72
28000;BME280;15328;50.860;10.562;2023-12-14T23:08:39;97302.03;;;3.67;63.03
28000;BME280;15328;50.860;10.562;2023-12-14T23:13:39;97318.19;;;3.72;63.18
28000;BME280;15328;50.860;10.562;2023-12-14T23:18:40;97322.47;;;3.73;63.55
28000;BME280;15328;50.860;10.562;2023-12-14T23:23:40;97327.28;;;3.78;63.48
28000;BME280;15328;50.860;10.562;2023-12-14T23:28:41;97344.56;;;3.81;63.77
28000;BME280;15328;50.860;10.562;2023-12-14T23:33:41;97343.97;;;3.87;63.63
28000;BME280;15328;50.860;10.562;2023-12-14T23:38:42;97355.69;;;3.92;63.33
28000;BME280;15328;50.860;10.562;2023-12-14T23:43:42;97365.09;;;3.95;63.74
28000;BME280;15328;50.860;10.562;2023-12-14T23:48:42;97368.69;;;3.94;64.21
28000;BME280;15328;50.860;10.562;2023-12-14T23:53:46;97376.13;;;3.98;63.97
28000;BME280;15328;50.860;10.562;2023-12-14T23:58:46;97381.25;;;4.00;63.89
